createdAt,value
2018-07-31T00:02:27.540Z,3.40
2018-07-31T00:04:56.064Z,3.37
2018-07-31T00:07:24.624Z,3.93
2018-07-31T00:09:53.173Z,3.50
2018-07-31T00:12:21.799Z,3.43
2018-07-31T00:14:50.373Z,3.50
2018-07-31T00:17:18.878Z,3.40
2018-07-31T00:19:47.413Z,4.13
2018-07-31T00:22:15.916Z,4.00
2018-07-31T00:24:44.444Z,3.77
2018-07-31T00:27:13.031Z,4.07
2018-07-31T00:29:41.564Z,3.27
2018-07-31T00:32:10.165Z,3.63
2018-07-31T00:34:38.637Z,3.07
2018-07-31T00:37:07.166Z,3.07
2018-07-31T00:39:35.740Z,3.60
2018-07-31T00:42:04.304Z,3.63
2018-07-31T00:44:32.786Z,3.40
2018-07-31T00:47:01.299Z,3.20
2018-07-31T00:49:29.813Z,3.43
2018-07-31T00:51:58.359Z,3.40
2018-07-31T00:54:26.873Z,3.70
2018-07-31T00:56:55.423Z,4.23
2018-07-31T00:59:23.905Z,3.30
2018-07-31T01:01:52.724Z,3.43
2018-07-31T01:04:21.249Z,3.17
2018-07-31T01:06:49.841Z,3.17
2018-07-31T01:09:18.440Z,3.27
2018-07-31T01:11:46.961Z,3.50
2018-07-31T01:14:15.445Z,3.67
2018-07-31T01:16:44.105Z,3.33
2018-07-31T01:19:12.667Z,3.77
2018-07-31T01:21:41.593Z,3.60
2018-07-31T01:24:10.784Z,3.50
2018-07-31T01:26:39.333Z,3.77
2018-07-31T01:29:07.905Z,3.70
2018-07-31T01:31:36.433Z,4.00
2018-07-31T01:34:05.002Z,4.67
2018-07-31T01:36:33.489Z,3.40
2018-07-31T01:39:02.109Z,3.60
2018-07-31T01:41:30.693Z,3.50
2018-07-31T01:43:59.225Z,3.87
2018-07-31T01:46:27.729Z,3.30
2018-07-31T01:48:56.233Z,3.90
2018-07-31T01:51:24.724Z,3.27
2018-07-31T01:53:53.242Z,3.20
2018-07-31T01:56:21.728Z,3.23
2018-07-31T01:58:50.329Z,3.47
2018-07-31T02:01:18.837Z,3.50
2018-07-31T02:03:47.361Z,3.10
2018-07-31T02:06:15.959Z,3.50
2018-07-31T02:08:44.455Z,3.23
2018-07-31T02:11:12.960Z,3.23
2018-07-31T02:13:41.469Z,3.30
2018-07-31T02:16:09.944Z,3.73
2018-07-31T02:18:38.505Z,2.80
2018-07-31T02:21:07.126Z,4.20
2018-07-31T02:23:35.601Z,3.50
2018-07-31T02:26:04.158Z,3.40
2018-07-31T02:28:32.693Z,3.60
2018-07-31T02:31:01.194Z,4.00
2018-07-31T02:33:29.428Z,3.30
2018-07-31T02:35:57.944Z,3.50
2018-07-31T02:38:26.470Z,3.90
2018-07-31T02:40:55.003Z,4.60
2018-07-31T02:43:23.521Z,4.23
2018-07-31T02:45:52.097Z,3.80
2018-07-31T02:48:20.577Z,4.20
2018-07-31T02:50:49.161Z,3.63
2018-07-31T02:53:17.746Z,3.90
2018-07-31T02:55:46.832Z,3.40
2018-07-31T02:58:15.398Z,3.90
2018-07-31T03:00:43.899Z,3.47
2018-07-31T03:03:12.393Z,3.40
2018-07-31T03:05:40.931Z,3.73
2018-07-31T03:08:09.609Z,3.67
2018-07-31T03:10:38.242Z,3.83
2018-07-31T03:13:06.713Z,3.77
2018-07-31T03:15:35.213Z,3.40
2018-07-31T03:18:03.746Z,3.50
2018-07-31T03:20:32.221Z,3.30
2018-07-31T03:23:00.742Z,3.60
2018-07-31T03:25:29.285Z,3.80
2018-07-31T03:27:57.867Z,4.20
2018-07-31T03:30:26.450Z,3.20
2018-07-31T03:32:54.975Z,3.73
2018-07-31T03:35:23.453Z,3.70
2018-07-31T03:37:52.029Z,3.20
2018-07-31T03:40:20.528Z,3.17
2018-07-31T03:42:49.051Z,3.27
2018-07-31T03:45:17.569Z,4.00
2018-07-31T03:47:46.101Z,3.20
2018-07-31T03:50:14.592Z,3.30
2018-07-31T03:52:43.136Z,3.97
2018-07-31T03:55:11.678Z,3.87
2018-07-31T03:57:40.186Z,3.57
2018-07-31T04:00:08.717Z,4.20
2018-07-31T04:02:37.302Z,3.40
2018-07-31T04:05:05.837Z,3.07
2018-07-31T04:07:34.307Z,3.90
2018-07-31T04:10:02.864Z,4.10
2018-07-31T04:12:31.385Z,4.10
2018-07-31T04:14:59.923Z,3.80
2018-07-31T04:17:28.486Z,3.53
2018-07-31T04:19:57.020Z,3.90
2018-07-31T04:22:25.510Z,3.90
2018-07-31T04:24:54.089Z,3.63
2018-07-31T04:27:22.611Z,3.60
2018-07-31T04:29:51.186Z,3.33
2018-07-31T04:32:19.701Z,4.07
2018-07-31T04:34:48.297Z,3.80
2018-07-31T04:37:16.824Z,3.23
2018-07-31T04:39:45.365Z,3.83
2018-07-31T04:42:13.929Z,4.30
2018-07-31T04:44:42.457Z,3.47
2018-07-31T04:47:10.989Z,3.00
2018-07-31T04:49:39.516Z,3.00
2018-07-31T04:52:07.977Z,3.30
2018-07-31T04:54:36.557Z,2.87
2018-07-31T04:57:05.317Z,4.10
2018-07-31T04:59:33.834Z,3.47
2018-07-31T05:02:02.438Z,3.80
2018-07-31T05:04:31.040Z,4.37
2018-07-31T05:06:59.514Z,4.00
2018-07-31T05:09:28.033Z,3.47
2018-07-31T05:11:56.558Z,3.37
2018-07-31T05:14:25.117Z,4.10
2018-07-31T05:16:53.613Z,3.50
2018-07-31T05:19:22.142Z,4.50
2018-07-31T05:21:50.701Z,4.30
2018-07-31T05:24:19.213Z,4.50
2018-07-31T05:26:47.801Z,3.93
2018-07-31T05:29:16.350Z,5.20
2018-07-31T05:31:44.878Z,4.60
2018-07-31T05:34:13.416Z,4.70
2018-07-31T05:36:41.999Z,4.27
2018-07-31T05:39:11.977Z,4.93
2018-07-31T05:41:40.697Z,4.27
2018-07-31T05:44:09.240Z,4.30
2018-07-31T05:46:38.771Z,4.37
2018-07-31T05:49:08.629Z,4.43
2018-07-31T05:51:36.827Z,3.93
2018-07-31T05:54:05.370Z,5.07
2018-07-31T05:56:33.964Z,4.60
2018-07-31T05:59:02.479Z,4.77
2018-07-31T06:01:30.945Z,4.40
2018-07-31T06:03:59.454Z,4.50
2018-07-31T06:06:27.933Z,4.07
2018-07-31T06:08:56.513Z,3.87
2018-07-31T06:11:25.020Z,3.70
2018-07-31T06:13:53.541Z,4.23
2018-07-31T06:16:22.042Z,3.87
2018-07-31T06:18:50.617Z,4.00
2018-07-31T06:21:19.113Z,3.70
2018-07-31T06:23:47.649Z,4.50
2018-07-31T06:26:16.145Z,4.90
2018-07-31T06:28:44.771Z,4.00
2018-07-31T06:31:13.284Z,3.87
2018-07-31T06:33:41.821Z,4.23
2018-07-31T06:36:10.517Z,4.50
2018-07-31T06:38:39.111Z,3.97
2018-07-31T06:41:07.593Z,4.73
2018-07-31T06:43:36.201Z,5.07
2018-07-31T06:46:04.726Z,5.63
2018-07-31T06:48:33.266Z,4.97
2018-07-31T06:51:01.729Z,3.70
2018-07-31T06:53:30.251Z,5.00
2018-07-31T06:55:58.761Z,4.17
2018-07-31T06:58:27.327Z,4.10
2018-07-31T07:00:55.791Z,4.70
2018-07-31T07:03:24.585Z,3.23
2018-07-31T07:05:53.092Z,3.93
2018-07-31T07:08:21.606Z,4.50
2018-07-31T07:10:50.090Z,5.27
2018-07-31T07:13:18.611Z,3.80
2018-07-31T07:15:47.082Z,4.33
2018-07-31T07:18:15.615Z,5.00
2018-07-31T07:20:44.081Z,4.37
2018-07-31T07:23:12.659Z,4.03
2018-07-31T07:25:41.233Z,5.43
2018-07-31T07:28:09.779Z,4.53
2018-07-31T07:30:38.321Z,4.13
2018-07-31T07:33:06.817Z,3.70
2018-07-31T07:35:35.345Z,4.17
2018-07-31T07:38:04.057Z,3.47
2018-07-31T07:40:32.541Z,3.50
2018-07-31T07:43:01.092Z,3.70
2018-07-31T07:45:29.573Z,2.97
2018-07-31T07:47:58.126Z,2.80
2018-07-31T07:50:26.606Z,3.13
2018-07-31T07:52:55.073Z,3.27
2018-07-31T07:55:23.616Z,2.67
2018-07-31T07:57:52.111Z,3.03
2018-07-31T08:00:20.626Z,2.70
2018-07-31T08:02:49.106Z,3.37
2018-07-31T08:05:17.620Z,3.60
2018-07-31T08:07:46.130Z,3.00
2018-07-31T08:10:14.641Z,2.47
2018-07-31T08:12:43.149Z,3.00
2018-07-31T08:15:11.661Z,2.57
2018-07-31T08:17:40.176Z,2.70
2018-07-31T08:20:08.706Z,2.20
2018-07-31T08:22:37.317Z,2.47
2018-07-31T08:25:05.806Z,2.80
2018-07-31T08:27:34.388Z,2.23
2018-07-31T08:30:02.910Z,2.43
2018-07-31T08:32:31.472Z,2.50
2018-07-31T08:34:59.941Z,1.90
2018-07-31T08:37:28.462Z,2.20
2018-07-31T08:39:57.105Z,2.20
2018-07-31T08:42:25.613Z,2.52
2018-07-31T08:44:54.096Z,2.25
2018-07-31T08:47:22.605Z,2.05
2018-07-31T08:49:50.779Z,2.20
2018-07-31T08:52:18.957Z,1.90
2018-07-31T08:54:47.484Z,2.20
2018-07-31T08:57:16.021Z,2.35
2018-07-31T08:59:44.605Z,1.72
2018-07-31T09:02:13.089Z,1.97
2018-07-31T09:04:41.610Z,1.83
2018-07-31T09:07:10.111Z,2.00
2018-07-31T09:09:38.651Z,1.73
2018-07-31T09:12:07.177Z,2.10
2018-07-31T09:14:35.693Z,2.03
2018-07-31T09:17:04.173Z,1.90
2018-07-31T09:19:32.674Z,2.80
2018-07-31T09:22:01.282Z,2.07
2018-07-31T09:24:29.853Z,1.87
2018-07-31T09:26:58.422Z,1.50
2018-07-31T09:29:26.957Z,1.92
2018-07-31T09:31:55.556Z,2.20
2018-07-31T09:34:24.078Z,1.75
2018-07-31T09:36:52.558Z,2.05
2018-07-31T09:39:21.157Z,2.67
2018-07-31T09:41:49.705Z,2.10
2018-07-31T09:44:18.255Z,1.87
2018-07-31T09:46:46.764Z,2.12
2018-07-31T09:49:15.374Z,1.35
2018-07-31T09:51:43.865Z,2.00
2018-07-31T09:54:12.385Z,2.17
2018-07-31T09:56:40.905Z,1.82
2018-07-31T09:59:09.482Z,2.02
2018-07-31T10:01:37.987Z,1.50
2018-07-31T10:04:06.706Z,1.60
2018-07-31T10:06:35.190Z,2.05
2018-07-31T10:09:05.192Z,2.10
2018-07-31T10:11:33.686Z,2.43
2018-07-31T10:14:02.232Z,1.60
2018-07-31T10:16:30.745Z,1.90
2018-07-31T10:18:59.364Z,2.10
2018-07-31T10:21:27.897Z,1.60
2018-07-31T10:23:56.447Z,1.60
2018-07-31T10:26:24.937Z,1.83
2018-07-31T10:28:53.863Z,1.30
2018-07-31T10:31:22.380Z,1.50
2018-07-31T10:33:50.876Z,1.47
2018-07-31T10:36:19.414Z,1.70
2018-07-31T10:38:48.329Z,1.90
2018-07-31T10:41:16.881Z,1.83
2018-07-31T10:43:45.421Z,2.13
2018-07-31T10:46:14.013Z,1.60
2018-07-31T10:48:42.666Z,1.10
2018-07-31T10:51:11.301Z,1.30
2018-07-31T10:53:39.721Z,1.70
2018-07-31T10:56:08.297Z,1.73
2018-07-31T10:58:36.988Z,1.50
2018-07-31T11:01:05.419Z,1.50
2018-07-31T11:03:33.899Z,1.83
2018-07-31T11:06:02.418Z,1.50
2018-07-31T11:08:30.905Z,1.13
2018-07-31T11:10:59.444Z,1.37
2018-07-31T11:13:28.096Z,1.57
2018-07-31T11:15:56.612Z,1.63
2018-07-31T11:18:25.154Z,1.80
2018-07-31T11:20:53.775Z,1.50
2018-07-31T11:23:22.267Z,2.07
2018-07-31T11:25:50.871Z,1.27
2018-07-31T11:28:19.453Z,1.50
2018-07-31T11:30:48.137Z,1.87
2018-07-31T11:33:16.696Z,1.67
2018-07-31T11:35:45.473Z,1.37
2018-07-31T11:38:14.041Z,1.53
2018-07-31T11:40:42.802Z,1.60
2018-07-31T11:43:11.330Z,1.50
2018-07-31T11:45:39.857Z,2.00
2018-07-31T11:48:08.406Z,1.50
2018-07-31T11:50:36.961Z,1.50
2018-07-31T11:53:05.501Z,1.83
2018-07-31T11:55:34.014Z,1.77
2018-07-31T11:58:02.520Z,1.33
2018-07-31T12:00:31.031Z,2.03
2018-07-31T12:02:59.597Z,1.93
2018-07-31T12:05:28.174Z,1.30
2018-07-31T12:07:56.786Z,1.63
2018-07-31T12:10:25.326Z,1.70
2018-07-31T12:12:53.839Z,2.23
2018-07-31T12:15:22.366Z,1.20
2018-07-31T12:17:50.915Z,1.40
2018-07-31T12:20:19.399Z,1.73
2018-07-31T12:22:47.917Z,1.50
2018-07-31T12:25:16.513Z,1.70
2018-07-31T12:27:44.984Z,1.70
2018-07-31T12:30:13.577Z,1.60
2018-07-31T12:32:42.289Z,1.10
2018-07-31T12:35:11.357Z,1.30
2018-07-31T12:37:39.921Z,1.80
2018-07-31T12:40:08.574Z,1.63
2018-07-31T12:42:37.133Z,1.77
2018-07-31T12:45:05.605Z,1.23
2018-07-31T12:47:34.121Z,1.53
2018-07-31T12:50:02.740Z,1.67
2018-07-31T12:52:31.408Z,1.63
2018-07-31T12:54:59.933Z,1.40
2018-07-31T12:57:28.449Z,1.50
2018-07-31T12:59:56.955Z,1.60
2018-07-31T13:02:25.458Z,1.43
2018-07-31T13:04:53.972Z,1.50
2018-07-31T13:07:22.530Z,1.30
2018-07-31T13:09:51.037Z,1.53
2018-07-31T13:12:19.546Z,1.57
2018-07-31T13:14:48.026Z,1.70
2018-07-31T13:17:16.496Z,1.93
2018-07-31T13:19:45.154Z,1.40
2018-07-31T13:22:13.653Z,1.40
2018-07-31T13:24:42.189Z,1.70
2018-07-31T13:27:10.674Z,1.70
2018-07-31T13:29:39.206Z,1.40
2018-07-31T13:32:07.931Z,1.60
2018-07-31T13:34:36.490Z,1.43
2018-07-31T13:37:05.076Z,1.00
2018-07-31T13:39:33.608Z,1.20
2018-07-31T13:42:02.245Z,1.10
2018-07-31T13:44:30.823Z,1.90
2018-07-31T13:46:59.959Z,1.40
2018-07-31T13:49:28.509Z,1.70
2018-07-31T13:51:57.022Z,1.60
2018-07-31T13:54:25.482Z,1.50
2018-07-31T13:56:54.009Z,1.47
2018-07-31T13:59:22.605Z,1.67
2018-07-31T14:01:51.170Z,1.90
2018-07-31T14:04:19.651Z,1.43
2018-07-31T14:06:48.284Z,1.23
2018-07-31T14:09:16.761Z,1.37
2018-07-31T14:11:45.297Z,1.97
2018-07-31T14:14:13.813Z,1.20
2018-07-31T14:16:42.321Z,1.50
2018-07-31T14:19:10.818Z,1.70
2018-07-31T14:21:39.377Z,1.70
2018-07-31T14:24:07.899Z,2.00
2018-07-31T14:26:36.441Z,1.33
2018-07-31T14:29:04.981Z,1.60
2018-07-31T14:31:33.519Z,1.87
2018-07-31T14:34:02.045Z,2.17
2018-07-31T14:36:30.661Z,2.10
2018-07-31T14:38:59.204Z,1.57
2018-07-31T14:41:27.745Z,1.60
2018-07-31T14:44:01.990Z,1.93
2018-07-31T14:46:30.485Z,1.70
2018-07-31T14:48:58.993Z,1.50
2018-07-31T14:51:27.558Z,1.47
2018-07-31T14:53:56.116Z,1.47
2018-07-31T14:56:24.677Z,2.17
2018-07-31T14:58:53.179Z,1.90
2018-07-31T15:01:21.673Z,1.60
2018-07-31T15:03:50.184Z,1.80
2018-07-31T15:06:18.691Z,1.20
2018-07-31T15:08:47.153Z,1.50
2018-07-31T15:11:15.994Z,1.63
2018-07-31T15:13:44.218Z,2.07
2018-07-31T15:16:12.749Z,1.60
2018-07-31T15:18:41.254Z,1.30
2018-07-31T15:21:09.864Z,1.33
2018-07-31T15:23:38.407Z,1.53
2018-07-31T15:26:07.005Z,1.20
2018-07-31T15:28:35.601Z,1.80
2018-07-31T15:31:04.108Z,1.30
2018-07-31T15:33:32.609Z,1.20
2018-07-31T15:36:01.097Z,1.40
2018-07-31T15:38:29.733Z,1.40
2018-07-31T15:40:58.237Z,1.40
2018-07-31T15:43:26.765Z,0.93
2018-07-31T15:45:55.430Z,1.20
2018-07-31T15:48:24.029Z,1.23
2018-07-31T15:50:52.600Z,1.40
2018-07-31T15:53:20.756Z,1.73
2018-07-31T15:55:49.334Z,1.70
2018-07-31T15:58:17.857Z,1.20
2018-07-31T16:00:46.398Z,1.40
2018-07-31T16:03:14.910Z,1.40
2018-07-31T16:05:43.774Z,1.30
2018-07-31T16:08:12.302Z,0.90
2018-07-31T16:10:40.805Z,1.40
2018-07-31T16:13:09.297Z,1.23
2018-07-31T16:15:37.853Z,1.87
2018-07-31T16:18:06.385Z,1.30
2018-07-31T16:20:34.888Z,1.53
2018-07-31T16:23:03.417Z,1.20
2018-07-31T16:25:31.989Z,1.50
2018-07-31T16:28:00.505Z,1.10
2018-07-31T16:30:28.992Z,1.20
2018-07-31T16:32:57.548Z,0.87
2018-07-31T16:35:26.009Z,1.27
2018-07-31T16:37:54.525Z,1.57
2018-07-31T16:40:23.087Z,1.40
2018-07-31T16:42:51.618Z,1.10
2018-07-31T16:45:20.207Z,1.23
2018-07-31T16:47:48.695Z,0.80
2018-07-31T16:50:17.224Z,1.00
2018-07-31T16:52:45.749Z,1.20
2018-07-31T16:55:14.306Z,2.37
2018-07-31T16:57:42.813Z,0.93
2018-07-31T17:00:11.345Z,1.17
2018-07-31T17:02:39.868Z,1.10
2018-07-31T17:05:08.457Z,1.10
2018-07-31T17:07:36.941Z,0.97
2018-07-31T17:10:05.689Z,1.03
2018-07-31T17:12:34.257Z,1.27
2018-07-31T17:15:02.753Z,1.10
2018-07-31T17:17:31.429Z,1.00
2018-07-31T17:19:59.943Z,0.97
2018-07-31T17:22:28.497Z,0.90
2018-07-31T17:24:56.971Z,0.90
2018-07-31T17:27:25.486Z,0.70
2018-07-31T17:29:53.955Z,0.80
2018-07-31T17:32:22.486Z,0.80
2018-07-31T17:34:51.003Z,1.20
2018-07-31T17:37:19.548Z,1.30
2018-07-31T17:39:48.072Z,0.87
2018-07-31T17:42:16.664Z,0.90
2018-07-31T17:44:45.166Z,1.00
2018-07-31T17:47:13.670Z,1.40
2018-07-31T17:49:42.129Z,0.80
2018-07-31T17:52:10.641Z,0.93
2018-07-31T17:54:39.128Z,1.17
2018-07-31T17:57:07.689Z,1.10
2018-07-31T17:59:36.156Z,1.20
2018-07-31T18:02:04.729Z,2.10
2018-07-31T18:04:33.714Z,1.20
2018-07-31T18:07:02.553Z,1.33
2018-07-31T18:09:31.093Z,1.20
2018-07-31T18:11:59.581Z,1.10
2018-07-31T18:14:28.113Z,0.80
2018-07-31T18:16:56.641Z,1.00
2018-07-31T18:19:25.117Z,0.77
2018-07-31T18:21:53.655Z,0.90
2018-07-31T18:24:22.130Z,0.80
2018-07-31T18:26:50.665Z,1.20
2018-07-31T18:29:19.226Z,0.90
2018-07-31T18:31:47.800Z,0.70
2018-07-31T18:34:16.313Z,0.80
2018-07-31T18:36:44.801Z,1.00
2018-07-31T18:39:18.377Z,1.27
2018-07-31T18:41:49.715Z,0.90
2018-07-31T18:44:18.689Z,1.00
2018-07-31T18:46:47.546Z,1.27
2018-07-31T18:49:16.238Z,1.33
2018-07-31T18:51:45.494Z,0.70
2018-07-31T18:54:14.458Z,1.00
2018-07-31T18:56:43.911Z,1.10
2018-07-31T18:59:13.142Z,1.20
2018-07-31T19:01:42.046Z,0.90
2018-07-31T19:04:10.951Z,1.00
2018-07-31T19:06:39.706Z,1.30
2018-07-31T19:09:12.298Z,1.37
2018-07-31T19:11:41.945Z,1.10
2018-07-31T19:14:10.586Z,1.03
2018-07-31T19:16:39.892Z,1.00
2018-07-31T19:19:08.409Z,1.00
2018-07-31T19:21:37.413Z,0.80
2018-07-31T19:24:05.957Z,1.10
2018-07-31T19:26:34.454Z,1.23
2018-07-31T19:29:04.950Z,0.70
2018-07-31T19:31:33.481Z,0.90
2018-07-31T19:34:02.474Z,0.83
2018-07-31T19:36:38.658Z,1.00
2018-07-31T19:39:08.113Z,1.07
2018-07-31T19:41:36.650Z,1.50
2018-07-31T19:44:05.389Z,0.77
2018-07-31T19:46:33.953Z,0.80
2018-07-31T19:49:02.477Z,0.90
2018-07-31T19:51:30.936Z,1.00
2018-07-31T19:53:59.513Z,1.30
2018-07-31T19:56:28.119Z,1.40
2018-07-31T19:58:57.105Z,1.23
2018-07-31T20:01:25.599Z,1.10
2018-07-31T20:03:54.206Z,1.33
2018-07-31T20:06:22.703Z,1.07
2018-07-31T20:08:51.236Z,1.00
2018-07-31T20:11:20.926Z,1.10
2018-07-31T20:13:49.526Z,1.30
2018-07-31T20:16:18.789Z,1.00
2018-07-31T20:18:47.482Z,1.60
2018-07-31T20:21:15.974Z,1.30
2018-07-31T20:23:44.524Z,1.40
2018-07-31T20:26:13.061Z,1.70
2018-07-31T20:28:41.545Z,1.43
2018-07-31T20:31:10.144Z,1.30
2018-07-31T20:33:38.629Z,1.50
2018-07-31T20:36:08.172Z,1.80
2018-07-31T20:38:36.817Z,1.90
2018-07-31T20:41:05.418Z,1.40
2018-07-31T20:43:34.047Z,1.67
2018-07-31T20:46:02.974Z,1.60
2018-07-31T20:48:32.519Z,1.63
2018-07-31T20:51:02.764Z,2.10
2018-07-31T20:53:31.731Z,1.70
2018-07-31T20:56:00.326Z,1.97
2018-07-31T20:58:28.828Z,2.20
2018-07-31T21:00:57.877Z,2.00
2018-07-31T21:03:29.951Z,1.93
2018-07-31T21:06:02.573Z,2.50
2018-07-31T21:08:31.244Z,2.93
2018-07-31T21:10:59.998Z,2.50
2018-07-31T21:13:31.217Z,2.30
2018-07-31T21:15:59.697Z,1.97
2018-07-31T21:18:28.299Z,2.30
2018-07-31T21:20:57.657Z,2.60
2018-07-31T21:23:26.529Z,2.70
2018-07-31T21:25:55.025Z,2.40
2018-07-31T21:28:24.553Z,2.40
2018-07-31T21:30:53.049Z,2.00
2018-07-31T21:33:21.300Z,2.07
2018-07-31T21:35:49.969Z,2.30
2018-07-31T21:38:18.567Z,2.27
2018-07-31T21:40:47.169Z,2.70
2018-07-31T21:43:15.713Z,2.00
2018-07-31T21:45:44.261Z,1.97
2018-07-31T21:48:12.830Z,2.03
2018-07-31T21:50:41.314Z,2.30
2018-07-31T21:53:09.818Z,2.37
2018-07-31T21:55:38.373Z,2.73
2018-07-31T21:58:06.921Z,2.67
2018-07-31T22:00:40.706Z,2.50
2018-07-31T22:03:09.202Z,2.47
2018-07-31T22:05:37.384Z,2.20
2018-07-31T22:08:05.937Z,1.80
2018-07-31T22:10:34.512Z,2.30
2018-07-31T22:13:03.029Z,2.30
2018-07-31T22:15:31.558Z,1.90
2018-07-31T22:18:00.091Z,2.50
2018-07-31T22:20:28.630Z,2.50
2018-07-31T22:22:57.195Z,2.13
2018-07-31T22:25:25.685Z,2.60
2018-07-31T22:27:54.222Z,3.30
2018-07-31T22:30:22.690Z,2.20
2018-07-31T22:32:51.185Z,2.40
2018-07-31T22:35:19.684Z,2.50
2018-07-31T22:37:48.253Z,2.93
2018-07-31T22:40:16.801Z,2.03
2018-07-31T22:42:45.297Z,1.80
2018-07-31T22:45:13.816Z,2.50
2018-07-31T22:47:42.336Z,2.60
2018-07-31T22:50:10.854Z,2.70
2018-07-31T22:52:39.336Z,2.00
2018-07-31T22:55:07.816Z,2.43
2018-07-31T22:57:36.325Z,2.43
2018-07-31T23:00:05.601Z,2.67
2018-07-31T23:02:34.163Z,3.00
2018-07-31T23:05:02.647Z,2.40
2018-07-31T23:07:31.185Z,2.37
2018-07-31T23:10:03.573Z,2.20
2018-07-31T23:12:32.532Z,2.47
2018-07-31T23:15:02.023Z,2.60
2018-07-31T23:17:31.229Z,2.40
2018-07-31T23:20:01.933Z,2.17
2018-07-31T23:22:44.022Z,2.37
2018-07-31T23:25:12.584Z,2.50
2018-07-31T23:27:41.061Z,3.20
2018-07-31T23:30:09.957Z,2.53
2018-07-31T23:32:38.981Z,2.93
2018-07-31T23:35:07.597Z,3.20
2018-07-31T23:37:36.082Z,2.70
2018-07-31T23:40:05.504Z,2.70
2018-07-31T23:42:34.026Z,2.10
2018-07-31T23:45:02.566Z,2.40
2018-07-31T23:47:31.560Z,2.13
2018-07-31T23:50:01.005Z,2.57
2018-07-31T23:52:29.757Z,2.37
2018-07-31T23:54:58.340Z,2.30
2018-07-31T23:57:26.906Z,2.40
2018-07-31T23:59:55.457Z,2.30
